sensor_id;sensor_type;location;lat;lon;timestamp;P1;durP1;ratioP1;P2;durP2;ratioP2
71127;SDS011;59249;59.736;30.568;2024-03-22T00:01:23;9.32;;;4.28;;
71127;SDS011;59249;59.736;30.568;2024-03-22T00:03:52;12.02;;;4.18;;
71127;SDS011;59249;59.736;30.568;2024-03-22T00:06:26;12.27;;;3.83;;
71127;SDS011;59249;59.736;30.568;2024-03-22T00:09:04;8.40;;;3.53;;
71127;SDS011;59249;59.736;30.568;2024-03-22T00:11:49;9.52;;;3.58;;
71127;SDS011;59249;59.736;30.568;2024-03-22T00:14:19;10.75;;;4.32;;
71127;SDS011;59249;59.736;30.568;2024-03-22T00:16:47;11.02;;;3.95;;
71127;SDS011;59249;59.736;30.568;2024-03-22T00:19:16;12.55;;;4.70;;
71127;SDS011;59249;59.736;30.568;2024-03-22T00:21:54;16.50;;;4.73;;
71127;SDS011;59249;59.736;30.568;2024-03-22T00:24:36;10.73;;;4.38;;
71127;SDS011;59249;59.736;30.568;2024-03-22T00:27:17;12.18;;;4.15;;
71127;SDS011;59249;59.736;30.568;2024-03-22T00:29:45;10.52;;;4.68;;
71127;SDS011;59249;59.736;30.568;2024-03-22T00:32:15;12.57;;;4.57;;
71127;SDS011;59249;59.736;30.568;2024-03-22T00:34:45;8.13;;;3.97;;
71127;SDS011;59249;59.736;30.568;2024-03-22T00:37:14;10.02;;;3.90;;
71127;SDS011;59249;59.736;30.568;2024-03-22T00:39:46;13.80;;;4.43;;
71127;SDS011;59249;59.736;30.568;2024-03-22T00:42:24;9.52;;;4.03;;
71127;SDS011;59249;59.736;30.568;2024-03-22T00:44:53;11.10;;;4.15;;
71127;SDS011;59249;59.736;30.568;2024-03-22T00:47:32;12.93;;;4.43;;
71127;SDS011;59249;59.736;30.568;2024-03-22T00:50:00;9.88;;;4.65;;
71127;SDS011;59249;59.736;30.568;2024-03-22T00:52:29;11.48;;;4.00;;
71127;SDS011;59249;59.736;30.568;2024-03-22T00:54:56;11.80;;;4.50;;
71127;SDS011;59249;59.736;30.568;2024-03-22T00:57:26;12.57;;;4.47;;
71127;SDS011;59249;59.736;30.568;2024-03-22T00:59:53;13.07;;;3.90;;
71127;SDS011;59249;59.736;30.568;2024-03-22T01:02:21;9.93;;;4.38;;
71127;SDS011;59249;59.736;30.568;2024-03-22T01:04:49;15.55;;;4.65;;
71127;SDS011;59249;59.736;30.568;2024-03-22T01:07:17;10.48;;;4.05;;
71127;SDS011;59249;59.736;30.568;2024-03-22T01:09:45;10.95;;;4.68;;
71127;SDS011;59249;59.736;30.568;2024-03-22T01:12:16;9.30;;;4.17;;
71127;SDS011;59249;59.736;30.568;2024-03-22T01:14:56;11.65;;;3.80;;
71127;SDS011;59249;59.736;30.568;2024-03-22T01:17:25;11.80;;;4.50;;
71127;SDS011;59249;59.736;30.568;2024-03-22T01:19:52;11.15;;;4.43;;
71127;SDS011;59249;59.736;30.568;2024-03-22T01:22:25;11.32;;;4.50;;
71127;SDS011;59249;59.736;30.568;2024-03-22T01:25:02;11.40;;;4.47;;
71127;SDS011;59249;59.736;30.568;2024-03-22T01:27:39;9.50;;;3.92;;
71127;SDS011;59249;59.736;30.568;2024-03-22T01:30:20;12.00;;;5.10;;
71127;SDS011;59249;59.736;30.568;2024-03-22T01:33:00;11.45;;;4.45;;
71127;SDS011;59249;59.736;30.568;2024-03-22T01:35:28;12.88;;;4.70;;
71127;SDS011;59249;59.736;30.568;2024-03-22T01:38:09;13.73;;;5.17;;
71127;SDS011;59249;59.736;30.568;2024-03-22T01:40:48;14.77;;;5.53;;
71127;SDS011;59249;59.736;30.568;2024-03-22T01:43:16;15.15;;;5.60;;
71127;SDS011;59249;59.736;30.568;2024-03-22T01:45:46;11.40;;;4.55;;
71127;SDS011;59249;59.736;30.568;2024-03-22T01:48:18;10.95;;;4.85;;
71127;SDS011;59249;59.736;30.568;2024-03-22T01:50:53;12.90;;;5.30;;
71127;SDS011;59249;59.736;30.568;2024-03-22T01:53:22;10.85;;;4.85;;
71127;SDS011;59249;59.736;30.568;2024-03-22T01:55:50;11.48;;;4.70;;
71127;SDS011;59249;59.736;30.568;2024-03-22T01:58:24;12.48;;;4.88;;
71127;SDS011;59249;59.736;30.568;2024-03-22T02:01:08;13.25;;;4.38;;
71127;SDS011;59249;59.736;30.568;2024-03-22T02:03:39;8.43;;;3.83;;
71127;SDS011;59249;59.736;30.568;2024-03-22T02:06:19;10.68;;;4.72;;
71127;SDS011;59249;59.736;30.568;2024-03-22T02:08:49;8.43;;;4.00;;
71127;SDS011;59249;59.736;30.568;2024-03-22T02:11:38;9.25;;;3.65;;
71127;SDS011;59249;59.736;30.568;2024-03-22T02:14:11;10.45;;;4.40;;
71127;SDS011;59249;59.736;30.568;2024-03-22T02:16:46;10.17;;;3.83;;
71127;SDS011;59249;59.736;30.568;2024-03-22T02:19:15;11.52;;;4.28;;
71127;SDS011;59249;59.736;30.568;2024-03-22T02:21:43;11.10;;;4.68;;
71127;SDS011;59249;59.736;30.568;2024-03-22T02:24:17;16.55;;;4.70;;
71127;SDS011;59249;59.736;30.568;2024-03-22T02:26:45;11.40;;;4.50;;
71127;SDS011;59249;59.736;30.568;2024-03-22T02:29:19;12.10;;;4.47;;
71127;SDS011;59249;59.736;30.568;2024-03-22T02:31:47;11.73;;;4.45;;
71127;SDS011;59249;59.736;30.568;2024-03-22T02:34:16;10.43;;;3.97;;
71127;SDS011;59249;59.736;30.568;2024-03-22T02:36:45;11.38;;;5.07;;
71127;SDS011;59249;59.736;30.568;2024-03-22T02:39:18;11.02;;;4.32;;
71127;SDS011;59249;59.736;30.568;2024-03-22T02:41:55;10.13;;;3.77;;
71127;SDS011;59249;59.736;30.568;2024-03-22T02:44:44;10.93;;;4.32;;
71127;SDS011;59249;59.736;30.568;2024-03-22T02:47:15;14.05;;;4.95;;
71127;SDS011;59249;59.736;30.568;2024-03-22T02:49:55;9.68;;;4.22;;
71127;SDS011;59249;59.736;30.568;2024-03-22T02:52:26;12.18;;;5.45;;
71127;SDS011;59249;59.736;30.568;2024-03-22T02:54:57;11.60;;;5.67;;
71127;SDS011;59249;59.736;30.568;2024-03-22T02:57:29;14.02;;;5.03;;
71127;SDS011;59249;59.736;30.568;2024-03-22T02:59:57;12.27;;;5.25;;
71127;SDS011;59249;59.736;30.568;2024-03-22T03:02:31;10.40;;;4.68;;
71127;SDS011;59249;59.736;30.568;2024-03-22T03:05:00;10.93;;;4.70;;
71127;SDS011;59249;59.736;30.568;2024-03-22T03:07:32;11.00;;;4.30;;
71127;SDS011;59249;59.736;30.568;2024-03-22T03:10:02;11.93;;;4.45;;
71127;SDS011;59249;59.736;30.568;2024-03-22T03:12:33;10.80;;;4.40;;
71127;SDS011;59249;59.736;30.568;2024-03-22T03:15:04;11.45;;;4.38;;
71127;SDS011;59249;59.736;30.568;2024-03-22T03:17:36;9.73;;;3.90;;
71127;SDS011;59249;59.736;30.568;2024-03-22T03:20:14;10.90;;;3.87;;
71127;SDS011;59249;59.736;30.568;2024-03-22T03:22:45;12.73;;;3.55;;
71127;SDS011;59249;59.736;30.568;2024-03-22T03:28:23;10.30;;;4.32;;
71127;SDS011;59249;59.736;30.568;2024-03-22T03:30:54;10.13;;;3.75;;
71127;SDS011;59249;59.736;30.568;2024-03-22T03:33:28;11.87;;;3.87;;
71127;SDS011;59249;59.736;30.568;2024-03-22T03:36:02;10.23;;;3.90;;
71127;SDS011;59249;59.736;30.568;2024-03-22T03:38:32;8.48;;;3.58;;
71127;SDS011;59249;59.736;30.568;2024-03-22T03:41:07;9.75;;;3.90;;
71127;SDS011;59249;59.736;30.568;2024-03-22T03:43:34;12.45;;;4.13;;
71127;SDS011;59249;59.736;30.568;2024-03-22T03:46:05;10.03;;;4.03;;
71127;SDS011;59249;59.736;30.568;2024-03-22T03:48:35;11.30;;;3.97;;
71127;SDS011;59249;59.736;30.568;2024-03-22T03:51:04;9.73;;;3.47;;
71127;SDS011;59249;59.736;30.568;2024-03-22T03:53:36;9.98;;;4.22;;
71127;SDS011;59249;59.736;30.568;2024-03-22T03:58:56;10.63;;;3.90;;
71127;SDS011;59249;59.736;30.568;2024-03-22T04:01:24;11.00;;;3.63;;
71127;SDS011;59249;59.736;30.568;2024-03-22T04:03:51;10.77;;;4.32;;
71127;SDS011;59249;59.736;30.568;2024-03-22T04:06:45;9.38;;;4.03;;
71127;SDS011;59249;59.736;30.568;2024-03-22T04:09:36;13.73;;;4.53;;
71127;SDS011;59249;59.736;30.568;2024-03-22T04:12:08;10.40;;;4.30;;
71127;SDS011;59249;59.736;30.568;2024-03-22T04:14:36;11.73;;;5.00;;
71127;SDS011;59249;59.736;30.568;2024-03-22T04:17:05;10.80;;;4.80;;
71127;SDS011;59249;59.736;30.568;2024-03-22T04:19:32;10.82;;;4.43;;
71127;SDS011;59249;59.736;30.568;2024-03-22T04:22:00;12.68;;;4.45;;
71127;SDS011;59249;59.736;30.568;2024-03-22T04:24:30;10.03;;;4.87;;
71127;SDS011;59249;59.736;30.568;2024-03-22T04:26:58;8.85;;;4.30;;
71127;SDS011;59249;59.736;30.568;2024-03-22T04:29:30;10.57;;;4.35;;
71127;SDS011;59249;59.736;30.568;2024-03-22T04:31:59;10.48;;;4.70;;
71127;SDS011;59249;59.736;30.568;2024-03-22T04:34:30;10.88;;;4.93;;
71127;SDS011;59249;59.736;30.568;2024-03-22T04:37:02;12.63;;;5.63;;
71127;SDS011;59249;59.736;30.568;2024-03-22T04:39:32;10.93;;;4.53;;
71127;SDS011;59249;59.736;30.568;2024-03-22T04:42:04;9.45;;;4.60;;
71127;SDS011;59249;59.736;30.568;2024-03-22T04:44:37;13.57;;;5.70;;
71127;SDS011;59249;59.736;30.568;2024-03-22T04:47:24;12.80;;;5.60;;
71127;SDS011;59249;59.736;30.568;2024-03-22T04:50:06;11.47;;;5.20;;
71127;SDS011;59249;59.736;30.568;2024-03-22T04:52:39;11.77;;;4.72;;
71127;SDS011;59249;59.736;30.568;2024-03-22T04:55:08;12.07;;;5.03;;
71127;SDS011;59249;59.736;30.568;2024-03-22T04:57:36;15.70;;;5.10;;
71127;SDS011;59249;59.736;30.568;2024-03-22T05:00:15;11.68;;;5.75;;
71127;SDS011;59249;59.736;30.568;2024-03-22T05:03:01;12.73;;;5.50;;
71127;SDS011;59249;59.736;30.568;2024-03-22T05:05:47;14.05;;;5.47;;
71127;SDS011;59249;59.736;30.568;2024-03-22T05:08:17;12.43;;;4.95;;
71127;SDS011;59249;59.736;30.568;2024-03-22T05:10:48;14.95;;;5.18;;
71127;SDS011;59249;59.736;30.568;2024-03-22T05:13:17;14.27;;;5.82;;
71127;SDS011;59249;59.736;30.568;2024-03-22T05:15:46;13.50;;;5.90;;
71127;SDS011;59249;59.736;30.568;2024-03-22T05:18:26;13.85;;;5.90;;
71127;SDS011;59249;59.736;30.568;2024-03-22T05:20:55;16.13;;;6.57;;
71127;SDS011;59249;59.736;30.568;2024-03-22T05:23:25;14.68;;;6.78;;
71127;SDS011;59249;59.736;30.568;2024-03-22T05:25:55;22.35;;;7.22;;
71127;SDS011;59249;59.736;30.568;2024-03-22T05:28:25;14.57;;;7.03;;
71127;SDS011;59249;59.736;30.568;2024-03-22T05:31:07;16.10;;;6.53;;
71127;SDS011;59249;59.736;30.568;2024-03-22T05:33:47;18.25;;;7.10;;
71127;SDS011;59249;59.736;30.568;2024-03-22T05:36:18;18.27;;;7.68;;
71127;SDS011;59249;59.736;30.568;2024-03-22T05:38:52;16.52;;;6.95;;
71127;SDS011;59249;59.736;30.568;2024-03-22T05:41:20;15.67;;;6.53;;
71127;SDS011;59249;59.736;30.568;2024-03-22T05:44:07;18.80;;;7.55;;
71127;SDS011;59249;59.736;30.568;2024-03-22T05:46:43;17.23;;;7.75;;
71127;SDS011;59249;59.736;30.568;2024-03-22T05:49:11;17.90;;;7.90;;
71127;SDS011;59249;59.736;30.568;2024-03-22T05:51:48;18.10;;;8.30;;
71127;SDS011;59249;59.736;30.568;2024-03-22T05:54:33;22.10;;;8.47;;
71127;SDS011;59249;59.736;30.568;2024-03-22T05:57:18;17.15;;;7.30;;
71127;SDS011;59249;59.736;30.568;2024-03-22T05:59:46;14.75;;;7.03;;
71127;SDS011;59249;59.736;30.568;2024-03-22T06:02:16;18.55;;;7.65;;
71127;SDS011;59249;59.736;30.568;2024-03-22T06:04:52;17.27;;;7.25;;
71127;SDS011;59249;59.736;30.568;2024-03-22T06:07:25;19.70;;;8.10;;
71127;SDS011;59249;59.736;30.568;2024-03-22T06:09:53;19.30;;;7.57;;
71127;SDS011;59249;59.736;30.568;2024-03-22T06:12:27;16.67;;;7.07;;
71127;SDS011;59249;59.736;30.568;2024-03-22T06:15:18;15.73;;;7.47;;
71127;SDS011;59249;59.736;30.568;2024-03-22T06:17:48;21.17;;;7.00;;
71127;SDS011;59249;59.736;30.568;2024-03-22T06:20:21;19.43;;;7.37;;
71127;SDS011;59249;59.736;30.568;2024-03-22T06:23:23;17.73;;;7.65;;
71127;SDS011;59249;59.736;30.568;2024-03-22T06:26:09;15.27;;;6.90;;
71127;SDS011;59249;59.736;30.568;2024-03-22T06:28:39;16.58;;;6.07;;
71127;SDS011;59249;59.736;30.568;2024-03-22T06:31:13;17.17;;;7.40;;
71127;SDS011;59249;59.736;30.568;2024-03-22T06:33:43;18.47;;;6.57;;
71127;SDS011;59249;59.736;30.568;2024-03-22T06:36:11;17.75;;;7.20;;
71127;SDS011;59249;59.736;30.568;2024-03-22T06:38:38;16.60;;;6.30;;
71127;SDS011;59249;59.736;30.568;2024-03-22T06:41:07;14.40;;;6.60;;
71127;SDS011;59249;59.736;30.568;2024-03-22T06:43:34;15.73;;;6.90;;
71127;SDS011;59249;59.736;30.568;2024-03-22T06:46:03;17.97;;;6.53;;
71127;SDS011;59249;59.736;30.568;2024-03-22T06:48:31;13.65;;;6.60;;
71127;SDS011;59249;59.736;30.568;2024-03-22T06:51:06;15.88;;;6.88;;
71127;SDS011;59249;59.736;30.568;2024-03-22T06:53:37;15.07;;;5.88;;
71127;SDS011;59249;59.736;30.568;2024-03-22T06:56:05;16.38;;;6.28;;
71127;SDS011;59249;59.736;30.568;2024-03-22T06:58:37;15.83;;;6.00;;
71127;SDS011;59249;59.736;30.568;2024-03-22T07:01:06;12.93;;;5.80;;
71127;SDS011;59249;59.736;30.568;2024-03-22T07:03:34;14.27;;;7.13;;
71127;SDS011;59249;59.736;30.568;2024-03-22T07:06:03;15.23;;;6.35;;
71127;SDS011;59249;59.736;30.568;2024-03-22T07:08:34;12.25;;;6.93;;
71127;SDS011;59249;59.736;30.568;2024-03-22T07:11:04;14.57;;;6.27;;
71127;SDS011;59249;59.736;30.568;2024-03-22T07:13:32;14.00;;;6.45;;
71127;SDS011;59249;59.736;30.568;2024-03-22T07:16:01;15.55;;;6.40;;
71127;SDS011;59249;59.736;30.568;2024-03-22T07:18:33;15.30;;;6.95;;
71127;SDS011;59249;59.736;30.568;2024-03-22T07:21:02;16.02;;;6.45;;
71127;SDS011;59249;59.736;30.568;2024-03-22T07:23:31;14.50;;;6.60;;
71127;SDS011;59249;59.736;30.568;2024-03-22T07:26:00;18.35;;;6.95;;
71127;SDS011;59249;59.736;30.568;2024-03-22T07:28:31;14.10;;;6.68;;
71127;SDS011;59249;59.736;30.568;2024-03-22T07:31:01;18.02;;;7.38;;
71127;SDS011;59249;59.736;30.568;2024-03-22T07:33:31;19.35;;;7.80;;
71127;SDS011;59249;59.736;30.568;2024-03-22T07:36:17;17.80;;;7.53;;
71127;SDS011;59249;59.736;30.568;2024-03-22T07:38:50;16.30;;;6.55;;
71127;SDS011;59249;59.736;30.568;2024-03-22T07:41:26;18.17;;;7.47;;
71127;SDS011;59249;59.736;30.568;2024-03-22T07:44:10;16.85;;;7.93;;
71127;SDS011;59249;59.736;30.568;2024-03-22T07:46:46;19.95;;;7.53;;
71127;SDS011;59249;59.736;30.568;2024-03-22T07:49:13;13.90;;;7.00;;
71127;SDS011;59249;59.736;30.568;2024-03-22T07:51:51;16.17;;;6.65;;
71127;SDS011;59249;59.736;30.568;2024-03-22T07:54:26;17.63;;;7.22;;
71127;SDS011;59249;59.736;30.568;2024-03-22T07:56:55;17.55;;;7.97;;
71127;SDS011;59249;59.736;30.568;2024-03-22T07:59:25;20.23;;;7.53;;
71127;SDS011;59249;59.736;30.568;2024-03-22T08:01:53;19.97;;;7.87;;
71127;SDS011;59249;59.736;30.568;2024-03-22T08:04:20;17.95;;;7.70;;
71127;SDS011;59249;59.736;30.568;2024-03-22T08:06:50;17.65;;;7.60;;
71127;SDS011;59249;59.736;30.568;2024-03-22T08:09:19;17.95;;;7.60;;
71127;SDS011;59249;59.736;30.568;2024-03-22T08:11:48;18.33;;;7.00;;
71127;SDS011;59249;59.736;30.568;2024-03-22T08:14:15;18.03;;;7.20;;
71127;SDS011;59249;59.736;30.568;2024-03-22T08:16:43;19.67;;;7.72;;
71127;SDS011;59249;59.736;30.568;2024-03-22T08:19:16;17.88;;;8.18;;
71127;SDS011;59249;59.736;30.568;2024-03-22T08:21:51;17.70;;;7.57;;
71127;SDS011;59249;59.736;30.568;2024-03-22T08:24:19;14.20;;;6.57;;
71127;SDS011;59249;59.736;30.568;2024-03-22T08:26:49;12.67;;;6.73;;
71127;SDS011;59249;59.736;30.568;2024-03-22T08:29:19;17.42;;;7.40;;
71127;SDS011;59249;59.736;30.568;2024-03-22T08:31:50;16.02;;;6.38;;
71127;SDS011;59249;59.736;30.568;2024-03-22T08:34:17;17.73;;;7.03;;
71127;SDS011;59249;59.736;30.568;2024-03-22T08:36:52;15.98;;;7.30;;
71127;SDS011;59249;59.736;30.568;2024-03-22T08:39:22;17.83;;;7.07;;
71127;SDS011;59249;59.736;30.568;2024-03-22T08:41:52;17.20;;;7.60;;
71127;SDS011;59249;59.736;30.568;2024-03-22T08:44:21;16.40;;;7.38;;
71127;SDS011;59249;59.736;30.568;2024-03-22T08:46:49;15.63;;;6.95;;
71127;SDS011;59249;59.736;30.568;2024-03-22T08:49:17;19.40;;;6.80;;
71127;SDS011;59249;59.736;30.568;2024-03-22T08:51:46;18.23;;;7.07;;
71127;SDS011;59249;59.736;30.568;2024-03-22T08:54:14;17.95;;;6.72;;
71127;SDS011;59249;59.736;30.568;2024-03-22T08:56:42;17.30;;;6.47;;
71127;SDS011;59249;59.736;30.568;2024-03-22T08:59:13;17.63;;;7.20;;
71127;SDS011;59249;59.736;30.568;2024-03-22T09:01:41;17.10;;;6.40;;
71127;SDS011;59249;59.736;30.568;2024-03-22T09:04:07;17.87;;;6.00;;
71127;SDS011;59249;59.736;30.568;2024-03-22T09:06:36;16.08;;;6.70;;
71127;SDS011;59249;59.736;30.568;2024-03-22T09:09:03;14.68;;;6.60;;
71127;SDS011;59249;59.736;30.568;2024-03-22T09:11:34;17.92;;;6.70;;
71127;SDS011;59249;59.736;30.568;2024-03-22T09:14:01;17.20;;;6.57;;
71127;SDS011;59249;59.736;30.568;2024-03-22T09:16:32;16.33;;;7.00;;
71127;SDS011;59249;59.736;30.568;2024-03-22T09:18:59;16.77;;;7.05;;
71127;SDS011;59249;59.736;30.568;2024-03-22T09:21:32;21.20;;;7.35;;
71127;SDS011;59249;59.736;30.568;2024-03-22T09:23:59;14.13;;;6.70;;
71127;SDS011;59249;59.736;30.568;2024-03-22T09:26:31;15.63;;;6.75;;
71127;SDS011;59249;59.736;30.568;2024-03-22T09:28:59;11.77;;;5.73;;
71127;SDS011;59249;59.736;30.568;2024-03-22T09:31:27;18.48;;;6.80;;
71127;SDS011;59249;59.736;30.568;2024-03-22T09:33:57;15.40;;;6.90;;
71127;SDS011;59249;59.736;30.568;2024-03-22T09:36:25;14.45;;;6.57;;
71127;SDS011;59249;59.736;30.568;2024-03-22T09:38:53;16.67;;;7.32;;
71127;SDS011;59249;59.736;30.568;2024-03-22T09:41:22;13.47;;;5.60;;
71127;SDS011;59249;59.736;30.568;2024-03-22T09:43:51;14.85;;;5.78;;
71127;SDS011;59249;59.736;30.568;2024-03-22T09:46:20;14.45;;;6.10;;
71127;SDS011;59249;59.736;30.568;2024-03-22T09:48:48;14.77;;;6.25;;
71127;SDS011;59249;59.736;30.568;2024-03-22T09:51:20;15.68;;;6.45;;
71127;SDS011;59249;59.736;30.568;2024-03-22T09:53:48;12.90;;;5.93;;
71127;SDS011;59249;59.736;30.568;2024-03-22T09:56:20;12.23;;;5.97;;
71127;SDS011;59249;59.736;30.568;2024-03-22T09:58:51;13.73;;;6.15;;
71127;SDS011;59249;59.736;30.568;2024-03-22T10:01:19;11.93;;;6.18;;
71127;SDS011;59249;59.736;30.568;2024-03-22T10:03:47;13.93;;;6.95;;
71127;SDS011;59249;59.736;30.568;2024-03-22T10:06:21;17.03;;;6.07;;
71127;SDS011;59249;59.736;30.568;2024-03-22T10:08:49;13.93;;;6.18;;
71127;SDS011;59249;59.736;30.568;2024-03-22T10:11:17;13.18;;;5.20;;
71127;SDS011;59249;59.736;30.568;2024-03-22T10:13:44;10.88;;;4.40;;
71127;SDS011;59249;59.736;30.568;2024-03-22T10:16:19;16.13;;;5.32;;
71127;SDS011;59249;59.736;30.568;2024-03-22T10:18:46;11.40;;;4.60;;
71127;SDS011;59249;59.736;30.568;2024-03-22T10:21:16;12.00;;;4.70;;
71127;SDS011;59249;59.736;30.568;2024-03-22T10:23:46;10.70;;;4.10;;
71127;SDS011;59249;59.736;30.568;2024-03-22T10:26:16;13.43;;;4.85;;
71127;SDS011;59249;59.736;30.568;2024-03-22T10:28:44;11.73;;;4.75;;
71127;SDS011;59249;59.736;30.568;2024-03-22T10:31:13;9.80;;;4.73;;
71127;SDS011;59249;59.736;30.568;2024-03-22T10:33:40;10.43;;;4.22;;
71127;SDS011;59249;59.736;30.568;2024-03-22T10:36:13;10.98;;;4.53;;
71127;SDS011;59249;59.736;30.568;2024-03-22T10:38:42;12.63;;;4.50;;
71127;SDS011;59249;59.736;30.568;2024-03-22T10:41:16;8.50;;;3.47;;
71127;SDS011;59249;59.736;30.568;2024-03-22T10:43:43;10.30;;;3.93;;
71127;SDS011;59249;59.736;30.568;2024-03-22T10:46:12;9.55;;;3.38;;
71127;SDS011;59249;59.736;30.568;2024-03-22T10:48:41;10.75;;;3.78;;
71127;SDS011;59249;59.736;30.568;2024-03-22T10:51:11;14.35;;;4.45;;
71127;SDS011;59249;59.736;30.568;2024-03-22T10:53:42;10.02;;;4.00;;
71127;SDS011;59249;59.736;30.568;2024-03-22T10:56:12;7.97;;;3.23;;
71127;SDS011;59249;59.736;30.568;2024-03-22T10:58:43;12.38;;;4.00;;
71127;SDS011;59249;59.736;30.568;2024-03-22T11:01:21;11.95;;;4.95;;
71127;SDS011;59249;59.736;30.568;2024-03-22T11:03:49;10.48;;;4.18;;
71127;SDS011;59249;59.736;30.568;2024-03-22T11:06:20;12.38;;;4.97;;
71127;SDS011;59249;59.736;30.568;2024-03-22T11:08:49;11.63;;;4.17;;
71127;SDS011;59249;59.736;30.568;2024-03-22T11:11:20;9.40;;;4.47;;
71127;SDS011;59249;59.736;30.568;2024-03-22T11:13:49;13.40;;;4.18;;
71127;SDS011;59249;59.736;30.568;2024-03-22T11:16:17;13.40;;;5.20;;
71127;SDS011;59249;59.736;30.568;2024-03-22T11:18:46;12.25;;;4.75;;
71127;SDS011;59249;59.736;30.568;2024-03-22T11:21:15;11.53;;;4.47;;
71127;SDS011;59249;59.736;30.568;2024-03-22T11:23:44;10.77;;;3.60;;
71127;SDS011;59249;59.736;30.568;2024-03-22T11:26:13;10.60;;;4.00;;
71127;SDS011;59249;59.736;30.568;2024-03-22T11:28:43;9.13;;;4.20;;
71127;SDS011;59249;59.736;30.568;2024-03-22T11:31:11;9.80;;;4.22;;
71127;SDS011;59249;59.736;30.568;2024-03-22T11:33:38;9.27;;;3.77;;
71127;SDS011;59249;59.736;30.568;2024-03-22T11:36:07;9.77;;;4.25;;
71127;SDS011;59249;59.736;30.568;2024-03-22T11:38:35;9.35;;;3.60;;
71127;SDS011;59249;59.736;30.568;2024-03-22T11:41:03;10.75;;;4.78;;
71127;SDS011;59249;59.736;30.568;2024-03-22T11:43:32;10.10;;;3.65;;
71127;SDS011;59249;59.736;30.568;2024-03-22T11:46:02;10.37;;;3.87;;
71127;SDS011;59249;59.736;30.568;2024-03-22T11:48:29;10.13;;;3.60;;
71127;SDS011;59249;59.736;30.568;2024-03-22T11:50:58;8.98;;;3.90;;
71127;SDS011;59249;59.736;30.568;2024-03-22T11:53:26;9.38;;;3.45;;
71127;SDS011;59249;59.736;30.568;2024-03-22T11:55:54;10.85;;;4.25;;
71127;SDS011;59249;59.736;30.568;2024-03-22T11:58:21;9.10;;;3.03;;
71127;SDS011;59249;59.736;30.568;2024-03-22T12:00:49;7.90;;;3.58;;
71127;SDS011;59249;59.736;30.568;2024-03-22T12:03:18;8.30;;;3.15;;
71127;SDS011;59249;59.736;30.568;2024-03-22T12:05:47;6.95;;;2.28;;
71127;SDS011;59249;59.736;30.568;2024-03-22T12:08:17;11.32;;;3.53;;
71127;SDS011;59249;59.736;30.568;2024-03-22T12:10:49;7.40;;;2.70;;
71127;SDS011;59249;59.736;30.568;2024-03-22T12:13:16;9.35;;;3.10;;
71127;SDS011;59249;59.736;30.568;2024-03-22T12:15:44;7.65;;;3.22;;
71127;SDS011;59249;59.736;30.568;2024-03-22T12:18:12;8.88;;;3.70;;
71127;SDS011;59249;59.736;30.568;2024-03-22T12:20:41;8.00;;;3.30;;
71127;SDS011;59249;59.736;30.568;2024-03-22T12:23:08;8.17;;;3.10;;
71127;SDS011;59249;59.736;30.568;2024-03-22T12:25:38;9.00;;;3.13;;
71127;SDS011;59249;59.736;30.568;2024-03-22T12:28:06;7.60;;;3.58;;
71127;SDS011;59249;59.736;30.568;2024-03-22T12:30:34;7.32;;;2.85;;
71127;SDS011;59249;59.736;30.568;2024-03-22T12:33:01;7.72;;;3.10;;
71127;SDS011;59249;59.736;30.568;2024-03-22T12:35:34;7.07;;;3.33;;
71127;SDS011;59249;59.736;30.568;2024-03-22T12:38:03;7.38;;;2.75;;
71127;SDS011;59249;59.736;30.568;2024-03-22T12:40:32;6.38;;;1.90;;
71127;SDS011;59249;59.736;30.568;2024-03-22T12:43:04;6.15;;;2.00;;
71127;SDS011;59249;59.736;30.568;2024-03-22T12:45:33;8.45;;;2.58;;
71127;SDS011;59249;59.736;30.568;2024-03-22T12:48:00;4.60;;;1.50;;
71127;SDS011;59249;59.736;30.568;2024-03-22T12:50:30;3.60;;;0.85;;
71127;SDS011;59249;59.736;30.568;2024-03-22T12:52:57;10.60;;;1.48;;
71127;SDS011;59249;59.736;30.568;2024-03-22T12:55:26;4.88;;;1.40;;
71127;SDS011;59249;59.736;30.568;2024-03-22T12:57:54;5.50;;;1.75;;
71127;SDS011;59249;59.736;30.568;2024-03-22T13:00:22;5.43;;;1.30;;
71127;SDS011;59249;59.736;30.568;2024-03-22T13:02:49;6.85;;;2.25;;
71127;SDS011;59249;59.736;30.568;2024-03-22T13:05:18;4.97;;;1.90;;
71127;SDS011;59249;59.736;30.568;2024-03-22T13:07:45;6.05;;;1.90;;
71127;SDS011;59249;59.736;30.568;2024-03-22T13:10:15;4.47;;;1.83;;
71127;SDS011;59249;59.736;30.568;2024-03-22T13:12:44;5.30;;;1.50;;
71127;SDS011;59249;59.736;30.568;2024-03-22T13:15:13;5.13;;;1.67;;
71127;SDS011;59249;59.736;30.568;2024-03-22T13:17:41;6.70;;;2.10;;
71127;SDS011;59249;59.736;30.568;2024-03-22T13:20:09;4.90;;;1.63;;
71127;SDS011;59249;59.736;30.568;2024-03-22T13:22:40;6.70;;;1.73;;
71127;SDS011;59249;59.736;30.568;2024-03-22T13:25:08;6.90;;;1.77;;
71127;SDS011;59249;59.736;30.568;2024-03-22T13:27:38;4.28;;;1.58;;
71127;SDS011;59249;59.736;30.568;2024-03-22T13:30:08;5.13;;;1.77;;
71127;SDS011;59249;59.736;30.568;2024-03-22T13:32:36;4.47;;;1.40;;
71127;SDS011;59249;59.736;30.568;2024-03-22T13:35:05;5.10;;;1.30;;
71127;SDS011;59249;59.736;30.568;2024-03-22T13:37:33;4.77;;;1.67;;
71127;SDS011;59249;59.736;30.568;2024-03-22T13:40:01;4.28;;;1.30;;
71127;SDS011;59249;59.736;30.568;2024-03-22T13:42:30;4.78;;;1.45;;
71127;SDS011;59249;59.736;30.568;2024-03-22T13:44:59;6.72;;;2.47;;
71127;SDS011;59249;59.736;30.568;2024-03-22T13:47:27;4.35;;;1.45;;
71127;SDS011;59249;59.736;30.568;2024-03-22T13:49:55;5.27;;;2.03;;
71127;SDS011;59249;59.736;30.568;2024-03-22T13:52:22;4.93;;;1.60;;
71127;SDS011;59249;59.736;30.568;2024-03-22T13:54:52;4.82;;;1.15;;
71127;SDS011;59249;59.736;30.568;2024-03-22T13:57:19;5.68;;;1.60;;
71127;SDS011;59249;59.736;30.568;2024-03-22T13:59:47;5.90;;;2.05;;
71127;SDS011;59249;59.736;30.568;2024-03-22T14:02:14;6.17;;;1.80;;
71127;SDS011;59249;59.736;30.568;2024-03-22T14:04:43;5.95;;;2.10;;
71127;SDS011;59249;59.736;30.568;2024-03-22T14:07:10;5.97;;;2.08;;
71127;SDS011;59249;59.736;30.568;2024-03-22T14:09:39;4.68;;;1.35;;
71127;SDS011;59249;59.736;30.568;2024-03-22T14:12:06;6.03;;;1.90;;
71127;SDS011;59249;59.736;30.568;2024-03-22T14:14:34;5.40;;;1.70;;
71127;SDS011;59249;59.736;30.568;2024-03-22T14:17:02;5.85;;;1.90;;
71127;SDS011;59249;59.736;30.568;2024-03-22T14:19:30;7.05;;;2.15;;
71127;SDS011;59249;59.736;30.568;2024-03-22T14:21:59;5.13;;;1.60;;
71127;SDS011;59249;59.736;30.568;2024-03-22T14:24:27;6.85;;;2.10;;
71127;SDS011;59249;59.736;30.568;2024-03-22T14:26:55;5.50;;;1.90;;
71127;SDS011;59249;59.736;30.568;2024-03-22T14:29:23;5.60;;;1.60;;
71127;SDS011;59249;59.736;30.568;2024-03-22T14:31:51;7.88;;;2.53;;
71127;SDS011;59249;59.736;30.568;2024-03-22T14:34:19;5.35;;;2.08;;
71127;SDS011;59249;59.736;30.568;2024-03-22T14:36:46;5.22;;;1.88;;
71127;SDS011;59249;59.736;30.568;2024-03-22T14:39:17;10.13;;;3.40;;
71127;SDS011;59249;59.736;30.568;2024-03-22T14:41:44;5.00;;;1.38;;
71127;SDS011;59249;59.736;30.568;2024-03-22T14:44:14;4.68;;;1.65;;
71127;SDS011;59249;59.736;30.568;2024-03-22T14:46:41;5.72;;;1.80;;
71127;SDS011;59249;59.736;30.568;2024-03-22T14:49:11;7.43;;;2.30;;
71127;SDS011;59249;59.736;30.568;2024-03-22T14:51:39;8.50;;;2.50;;
71127;SDS011;59249;59.736;30.568;2024-03-22T14:54:07;6.45;;;1.77;;